sensor_id;sensor_type;location;lat;lon;timestamp;temperature;humidity
490;DHT22;231;48.120;11.576;2022-10-16T00:01:05;15.20;51.40
490;DHT22;231;48.120;11.576;2022-10-16T00:03:32;15.30;50.90
490;DHT22;231;48.120;11.576;2022-10-16T00:06:01;15.30;50.80
490;DHT22;231;48.120;11.576;2022-10-16T00:08:29;15.30;50.30
490;DHT22;231;48.120;11.576;2022-10-16T00:11:00;15.30;50.00
490;DHT22;231;48.120;11.576;2022-10-16T00:13:27;15.30;50.10
490;DHT22;231;48.120;11.576;2022-10-16T00:15:57;15.20;50.10
490;DHT22;231;48.120;11.576;2022-10-16T00:18:27;15.20;50.40
490;DHT22;231;48.120;11.576;2022-10-16T00:20:54;15.20;50.60
490;DHT22;231;48.120;11.576;2022-10-16T00:23:23;15.20;50.20
490;DHT22;231;48.120;11.576;2022-10-16T00:25:58;15.20;50.70
490;DHT22;231;48.120;11.576;2022-10-16T00:28:25;15.20;50.00
490;DHT22;231;48.120;11.576;2022-10-16T00:30:52;15.20;49.80
490;DHT22;231;48.120;11.576;2022-10-16T00:33:20;15.20;49.40
490;DHT22;231;48.120;11.576;2022-10-16T00:35:47;15.20;49.70
490;DHT22;231;48.120;11.576;2022-10-16T00:38:14;15.20;49.10
490;DHT22;231;48.120;11.576;2022-10-16T00:40:42;15.10;49.70
490;DHT22;231;48.120;11.576;2022-10-16T00:43:12;15.10;49.00
490;DHT22;231;48.120;11.576;2022-10-16T00:45:41;15.10;49.20
490;DHT22;231;48.120;11.576;2022-10-16T00:48:11;15.10;48.90
490;DHT22;231;48.120;11.576;2022-10-16T00:50:40;15.10;48.70
490;DHT22;231;48.120;11.576;2022-10-16T00:53:10;15.10;48.70
490;DHT22;231;48.120;11.576;2022-10-16T00:55:38;15.00;49.10
490;DHT22;231;48.120;11.576;2022-10-16T00:58:06;15.00;49.30
490;DHT22;231;48.120;11.576;2022-10-16T01:00:33;15.00;49.60
490;DHT22;231;48.120;11.576;2022-10-16T01:03:02;15.00;49.60
490;DHT22;231;48.120;11.576;2022-10-16T01:05:33;14.90;49.70
490;DHT22;231;48.120;11.576;2022-10-16T01:08:05;14.90;50.60
490;DHT22;231;48.120;11.576;2022-10-16T01:10:48;14.90;50.00
490;DHT22;231;48.120;11.576;2022-10-16T01:13:24;14.80;50.40
490;DHT22;231;48.120;11.576;2022-10-16T01:15:55;14.80;51.20
490;DHT22;231;48.120;11.576;2022-10-16T01:18:30;14.80;51.00
490;DHT22;231;48.120;11.576;2022-10-16T01:21:02;14.80;50.40
490;DHT22;231;48.120;11.576;2022-10-16T01:23:38;14.70;50.20
490;DHT22;231;48.120;11.576;2022-10-16T01:26:34;14.60;50.30
490;DHT22;231;48.120;11.576;2022-10-16T01:29:08;14.60;51.00
490;DHT22;231;48.120;11.576;2022-10-16T01:31:41;14.50;51.70
490;DHT22;231;48.120;11.576;2022-10-16T01:34:15;14.60;52.20
490;DHT22;231;48.120;11.576;2022-10-16T01:36:47;14.60;51.80
490;DHT22;231;48.120;11.576;2022-10-16T01:39:18;14.60;51.40
490;DHT22;231;48.120;11.576;2022-10-16T01:41:50;14.70;50.90
490;DHT22;231;48.120;11.576;2022-10-16T01:44:22;14.70;50.30
490;DHT22;231;48.120;11.576;2022-10-16T01:46:52;14.70;50.10
490;DHT22;231;48.120;11.576;2022-10-16T01:49:21;14.70;50.00
490;DHT22;231;48.120;11.576;2022-10-16T01:51:52;14.70;49.60
490;DHT22;231;48.120;11.576;2022-10-16T01:54:23;14.80;49.40
490;DHT22;231;48.120;11.576;2022-10-16T01:56:53;14.80;49.20
490;DHT22;231;48.120;11.576;2022-10-16T01:59:25;14.80;49.40
490;DHT22;231;48.120;11.576;2022-10-16T02:01:56;14.80;48.90
490;DHT22;231;48.120;11.576;2022-10-16T02:04:29;14.80;48.80
490;DHT22;231;48.120;11.576;2022-10-16T02:06:58;14.80;48.60
490;DHT22;231;48.120;11.576;2022-10-16T02:09:26;14.90;48.70
490;DHT22;231;48.120;11.576;2022-10-16T02:11:55;14.80;48.30
490;DHT22;231;48.120;11.576;2022-10-16T02:14:24;14.80;48.70
490;DHT22;231;48.120;11.576;2022-10-16T02:16:51;14.80;49.20
490;DHT22;231;48.120;11.576;2022-10-16T02:19:19;14.80;48.90
490;DHT22;231;48.120;11.576;2022-10-16T02:21:49;14.80;48.80
490;DHT22;231;48.120;11.576;2022-10-16T02:24:22;14.70;49.30
490;DHT22;231;48.120;11.576;2022-10-16T02:26:52;14.70;49.50
490;DHT22;231;48.120;11.576;2022-10-16T02:29:27;14.70;49.60
490;DHT22;231;48.120;11.576;2022-10-16T02:31:56;14.70;49.30
490;DHT22;231;48.120;11.576;2022-10-16T02:34:26;14.80;49.40
490;DHT22;231;48.120;11.576;2022-10-16T02:36:58;14.80;49.00
490;DHT22;231;48.120;11.576;2022-10-16T02:39:27;14.80;48.70
490;DHT22;231;48.120;11.576;2022-10-16T02:41:55;14.80;48.50
490;DHT22;231;48.120;11.576;2022-10-16T02:44:22;14.80;48.70
490;DHT22;231;48.120;11.576;2022-10-16T02:46:50;14.80;48.50
490;DHT22;231;48.120;11.576;2022-10-16T02:49:17;14.70;48.00
490;DHT22;231;48.120;11.576;2022-10-16T02:51:44;14.80;48.40
490;DHT22;231;48.120;11.576;2022-10-16T02:54:11;14.70;48.90
490;DHT22;231;48.120;11.576;2022-10-16T02:56:38;14.80;48.20
490;DHT22;231;48.120;11.576;2022-10-16T02:59:05;14.80;48.00
490;DHT22;231;48.120;11.576;2022-10-16T03:01:32;14.80;47.80
490;DHT22;231;48.120;11.576;2022-10-16T03:04:00;14.80;47.70
490;DHT22;231;48.120;11.576;2022-10-16T03:06:27;14.70;47.70
490;DHT22;231;48.120;11.576;2022-10-16T03:08:54;14.70;48.00
490;DHT22;231;48.120;11.576;2022-10-16T03:11:21;14.60;48.40
490;DHT22;231;48.120;11.576;2022-10-16T03:13:48;14.60;48.50
490;DHT22;231;48.120;11.576;2022-10-16T03:16:15;14.60;48.40
490;DHT22;231;48.120;11.576;2022-10-16T03:18:42;14.60;48.20
490;DHT22;231;48.120;11.576;2022-10-16T03:21:10;14.50;48.30
490;DHT22;231;48.120;11.576;2022-10-16T03:23:37;14.60;48.40
490;DHT22;231;48.120;11.576;2022-10-16T03:26:04;14.60;47.90
490;DHT22;231;48.120;11.576;2022-10-16T03:28:32;14.50;47.90
490;DHT22;231;48.120;11.576;2022-10-16T03:30:59;14.50;48.10
490;DHT22;231;48.120;11.576;2022-10-16T03:33:25;14.50;48.20
490;DHT22;231;48.120;11.576;2022-10-16T03:35:53;14.40;48.30
490;DHT22;231;48.120;11.576;2022-10-16T03:38:21;14.50;48.80
490;DHT22;231;48.120;11.576;2022-10-16T03:40:48;14.50;48.90
490;DHT22;231;48.120;11.576;2022-10-16T03:43:15;14.40;48.80
490;DHT22;231;48.120;11.576;2022-10-16T03:45:43;14.50;49.10
490;DHT22;231;48.120;11.576;2022-10-16T03:48:10;14.50;49.20
490;DHT22;231;48.120;11.576;2022-10-16T03:50:37;14.40;49.10
490;DHT22;231;48.120;11.576;2022-10-16T03:53:04;14.40;49.10
490;DHT22;231;48.120;11.576;2022-10-16T03:55:32;14.40;49.30
490;DHT22;231;48.120;11.576;2022-10-16T03:57:59;14.50;49.40
490;DHT22;231;48.120;11.576;2022-10-16T04:00:26;14.50;49.10
490;DHT22;231;48.120;11.576;2022-10-16T04:02:53;14.60;48.80
490;DHT22;231;48.120;11.576;2022-10-16T04:05:20;14.70;48.40
490;DHT22;231;48.120;11.576;2022-10-16T04:07:47;14.70;47.80
490;DHT22;231;48.120;11.576;2022-10-16T04:10:14;14.70;47.80
490;DHT22;231;48.120;11.576;2022-10-16T04:12:43;14.80;47.60
490;DHT22;231;48.120;11.576;2022-10-16T04:15:10;14.80;47.00
490;DHT22;231;48.120;11.576;2022-10-16T04:17:37;14.90;46.50
490;DHT22;231;48.120;11.576;2022-10-16T04:20:05;14.90;45.70
490;DHT22;231;48.120;11.576;2022-10-16T04:22:32;14.90;45.60
490;DHT22;231;48.120;11.576;2022-10-16T04:24:59;15.00;45.50
490;DHT22;231;48.120;11.576;2022-10-16T04:27:25;15.00;44.60
490;DHT22;231;48.120;11.576;2022-10-16T04:29:55;15.00;44.20
490;DHT22;231;48.120;11.576;2022-10-16T04:32:22;15.00;44.20
490;DHT22;231;48.120;11.576;2022-10-16T04:34:49;15.00;44.20
490;DHT22;231;48.120;11.576;2022-10-16T04:37:16;15.00;44.20
490;DHT22;231;48.120;11.576;2022-10-16T04:39:42;15.00;44.20
490;DHT22;231;48.120;11.576;2022-10-16T04:42:10;15.00;44.20
490;DHT22;231;48.120;11.576;2022-10-16T04:44:37;15.10;44.30
490;DHT22;231;48.120;11.576;2022-10-16T04:47:05;15.10;44.30
490;DHT22;231;48.120;11.576;2022-10-16T04:49:32;15.10;44.00
490;DHT22;231;48.120;11.576;2022-10-16T04:51:59;15.10;43.30
490;DHT22;231;48.120;11.576;2022-10-16T04:54:26;15.10;43.40
490;DHT22;231;48.120;11.576;2022-10-16T04:56:54;15.10;43.00
490;DHT22;231;48.120;11.576;2022-10-16T04:59:21;15.10;43.10
490;DHT22;231;48.120;11.576;2022-10-16T05:01:48;15.10;42.90
490;DHT22;231;48.120;11.576;2022-10-16T05:04:16;15.10;42.90
490;DHT22;231;48.120;11.576;2022-10-16T05:06:43;15.10;42.80
490;DHT22;231;48.120;11.576;2022-10-16T05:09:10;15.00;43.00
490;DHT22;231;48.120;11.576;2022-10-16T05:11:37;15.00;43.60
490;DHT22;231;48.120;11.576;2022-10-16T05:14:04;15.00;43.50
490;DHT22;231;48.120;11.576;2022-10-16T05:16:31;15.00;43.40
490;DHT22;231;48.120;11.576;2022-10-16T05:18:58;15.00;43.90
490;DHT22;231;48.120;11.576;2022-10-16T05:21:26;15.00;43.80
490;DHT22;231;48.120;11.576;2022-10-16T05:23:53;15.00;43.90
490;DHT22;231;48.120;11.576;2022-10-16T05:26:20;15.00;43.90
490;DHT22;231;48.120;11.576;2022-10-16T05:28:48;15.10;43.50
490;DHT22;231;48.120;11.576;2022-10-16T05:31:15;15.10;43.40
490;DHT22;231;48.120;11.576;2022-10-16T05:33:42;15.10;43.20
490;DHT22;231;48.120;11.576;2022-10-16T05:36:10;15.10;43.10
490;DHT22;231;48.120;11.576;2022-10-16T05:38:38;15.20;43.10
490;DHT22;231;48.120;11.576;2022-10-16T05:41:07;15.20;42.80
490;DHT22;231;48.120;11.576;2022-10-16T05:43:34;15.10;43.00
490;DHT22;231;48.120;11.576;2022-10-16T05:46:03;15.20;43.30
490;DHT22;231;48.120;11.576;2022-10-16T05:48:31;15.20;43.30
490;DHT22;231;48.120;11.576;2022-10-16T05:50:58;15.20;43.30
490;DHT22;231;48.120;11.576;2022-10-16T05:53:26;15.20;43.40
490;DHT22;231;48.120;11.576;2022-10-16T05:55:55;15.20;43.40
490;DHT22;231;48.120;11.576;2022-10-16T05:58:22;15.20;43.50
490;DHT22;231;48.120;11.576;2022-10-16T06:00:56;15.20;43.30
490;DHT22;231;48.120;11.576;2022-10-16T06:03:23;15.20;43.40
490;DHT22;231;48.120;11.576;2022-10-16T06:05:51;15.20;43.70
490;DHT22;231;48.120;11.576;2022-10-16T06:08:19;15.20;43.90
490;DHT22;231;48.120;11.576;2022-10-16T06:10:46;15.20;44.00
490;DHT22;231;48.120;11.576;2022-10-16T06:13:15;15.20;43.90
490;DHT22;231;48.120;11.576;2022-10-16T06:15:42;15.20;43.80
490;DHT22;231;48.120;11.576;2022-10-16T06:18:10;15.20;43.90
490;DHT22;231;48.120;11.576;2022-10-16T06:20:37;15.20;43.80
490;DHT22;231;48.120;11.576;2022-10-16T06:23:04;15.20;44.20
490;DHT22;231;48.120;11.576;2022-10-16T06:25:31;15.20;44.30
490;DHT22;231;48.120;11.576;2022-10-16T06:27:58;15.30;44.40
490;DHT22;231;48.120;11.576;2022-10-16T06:30:26;15.30;44.40
490;DHT22;231;48.120;11.576;2022-10-16T06:32:53;15.30;44.40
490;DHT22;231;48.120;11.576;2022-10-16T06:35:20;15.30;44.50
490;DHT22;231;48.120;11.576;2022-10-16T06:37:47;15.30;44.30
490;DHT22;231;48.120;11.576;2022-10-16T06:40:14;15.30;44.50
490;DHT22;231;48.120;11.576;2022-10-16T06:42:41;15.40;44.30
490;DHT22;231;48.120;11.576;2022-10-16T06:45:09;15.30;43.20
490;DHT22;231;48.120;11.576;2022-10-16T06:47:38;15.40;43.50
490;DHT22;231;48.120;11.576;2022-10-16T06:50:06;15.40;43.40
490;DHT22;231;48.120;11.576;2022-10-16T06:52:33;15.50;43.40
490;DHT22;231;48.120;11.576;2022-10-16T06:55:00;15.50;42.70
490;DHT22;231;48.120;11.576;2022-10-16T06:57:28;15.60;42.60
490;DHT22;231;48.120;11.576;2022-10-16T06:59:55;15.60;42.50
490;DHT22;231;48.120;11.576;2022-10-16T07:02:22;15.60;42.10
490;DHT22;231;48.120;11.576;2022-10-16T07:04:50;15.70;42.10
490;DHT22;231;48.120;11.576;2022-10-16T07:07:17;15.70;41.70
490;DHT22;231;48.120;11.576;2022-10-16T07:09:44;15.80;41.50
490;DHT22;231;48.120;11.576;2022-10-16T07:12:11;15.80;40.90
490;DHT22;231;48.120;11.576;2022-10-16T07:14:38;15.90;40.80
490;DHT22;231;48.120;11.576;2022-10-16T07:17:05;15.90;40.60
490;DHT22;231;48.120;11.576;2022-10-16T07:19:32;16.00;40.20
490;DHT22;231;48.120;11.576;2022-10-16T07:22:00;16.10;39.40
490;DHT22;231;48.120;11.576;2022-10-16T07:24:28;16.10;39.10
490;DHT22;231;48.120;11.576;2022-10-16T07:26:55;16.20;39.20
490;DHT22;231;48.120;11.576;2022-10-16T07:29:23;16.20;39.10
490;DHT22;231;48.120;11.576;2022-10-16T07:31:52;16.30;38.70
490;DHT22;231;48.120;11.576;2022-10-16T07:34:20;16.40;38.40
490;DHT22;231;48.120;11.576;2022-10-16T07:36:49;16.50;38.10
490;DHT22;231;48.120;11.576;2022-10-16T07:39:18;16.60;37.30
490;DHT22;231;48.120;11.576;2022-10-16T07:41:45;16.70;36.30
490;DHT22;231;48.120;11.576;2022-10-16T07:44:12;16.70;35.50
490;DHT22;231;48.120;11.576;2022-10-16T07:46:39;16.70;35.10
490;DHT22;231;48.120;11.576;2022-10-16T07:49:05;16.80;34.40
490;DHT22;231;48.120;11.576;2022-10-16T07:51:32;17.00;34.30
490;DHT22;231;48.120;11.576;2022-10-16T07:53:59;17.00;33.90
490;DHT22;231;48.120;11.576;2022-10-16T07:56:31;17.10;33.50
490;DHT22;231;48.120;11.576;2022-10-16T07:58:58;17.10;32.90
490;DHT22;231;48.120;11.576;2022-10-16T08:01:25;17.30;32.40
490;DHT22;231;48.120;11.576;2022-10-16T08:03:52;17.40;31.60
490;DHT22;231;48.120;11.576;2022-10-16T08:06:20;17.90;32.70
490;DHT22;231;48.120;11.576;2022-10-16T08:08:48;19.10;29.30
490;DHT22;231;48.120;11.576;2022-10-16T08:11:15;20.00;26.10
490;DHT22;231;48.120;11.576;2022-10-16T08:13:43;21.30;21.00
490;DHT22;231;48.120;11.576;2022-10-16T08:16:10;22.50;17.40
490;DHT22;231;48.120;11.576;2022-10-16T08:18:38;23.60;13.60
490;DHT22;231;48.120;11.576;2022-10-16T08:21:12;24.70;11.20
490;DHT22;231;48.120;11.576;2022-10-16T08:23:39;25.60;8.40
490;DHT22;231;48.120;11.576;2022-10-16T08:26:07;26.20;6.20
490;DHT22;231;48.120;11.576;2022-10-16T08:28:35;26.40;4.50
490;DHT22;231;48.120;11.576;2022-10-16T08:31:08;27.20;3.80
490;DHT22;231;48.120;11.576;2022-10-16T08:33:36;27.50;3.20
490;DHT22;231;48.120;11.576;2022-10-16T08:36:04;27.80;2.20
490;DHT22;231;48.120;11.576;2022-10-16T08:38:32;27.70;1.00
490;DHT22;231;48.120;11.576;2022-10-16T08:41:19;27.30;2.60
490;DHT22;231;48.120;11.576;2022-10-16T08:44:04;27.70;1.80
490;DHT22;231;48.120;11.576;2022-10-16T08:46:42;28.10;1.00
490;DHT22;231;48.120;11.576;2022-10-16T08:49:12;28.60;1.00
490;DHT22;231;48.120;11.576;2022-10-16T08:51:40;29.00;1.00
490;DHT22;231;48.120;11.576;2022-10-16T08:54:21;29.20;1.00
490;DHT22;231;48.120;11.576;2022-10-16T08:56:49;28.90;1.00
490;DHT22;231;48.120;11.576;2022-10-16T08:59:17;28.50;1.00
490;DHT22;231;48.120;11.576;2022-10-16T09:01:49;28.00;1.00
490;DHT22;231;48.120;11.576;2022-10-16T09:04:49;27.30;1.00
490;DHT22;231;48.120;11.576;2022-10-16T09:07:24;26.60;2.10
490;DHT22;231;48.120;11.576;2022-10-16T09:10:16;26.00;3.20
490;DHT22;231;48.120;11.576;2022-10-16T09:12:52;25.50;4.70
490;DHT22;231;48.120;11.576;2022-10-16T09:15:28;24.90;5.20
490;DHT22;231;48.120;11.576;2022-10-16T09:18:02;24.50;6.30
490;DHT22;231;48.120;11.576;2022-10-16T09:20:38;24.30;7.20
490;DHT22;231;48.120;11.576;2022-10-16T09:23:17;24.10;6.90
490;DHT22;231;48.120;11.576;2022-10-16T09:25:47;23.40;6.10
490;DHT22;231;48.120;11.576;2022-10-16T09:28:15;23.10;7.20
490;DHT22;231;48.120;11.576;2022-10-16T09:30:42;22.80;7.90
490;DHT22;231;48.120;11.576;2022-10-16T09:33:12;22.70;7.70
490;DHT22;231;48.120;11.576;2022-10-16T09:35:41;22.60;8.20
490;DHT22;231;48.120;11.576;2022-10-16T09:38:25;22.70;8.00
490;DHT22;231;48.120;11.576;2022-10-16T09:40:54;22.60;8.10
490;DHT22;231;48.120;11.576;2022-10-16T09:43:24;22.70;8.40
490;DHT22;231;48.120;11.576;2022-10-16T09:45:54;22.50;8.00
490;DHT22;231;48.120;11.576;2022-10-16T09:48:23;22.50;8.30
490;DHT22;231;48.120;11.576;2022-10-16T09:50:59;22.60;8.50
490;DHT22;231;48.120;11.576;2022-10-16T09:53:38;22.70;8.70
490;DHT22;231;48.120;11.576;2022-10-16T09:56:06;22.70;8.60
490;DHT22;231;48.120;11.576;2022-10-16T09:58:33;22.70;8.20
490;DHT22;231;48.120;11.576;2022-10-16T10:01:00;22.80;7.60
490;DHT22;231;48.120;11.576;2022-10-16T10:03:36;22.80;7.50
490;DHT22;231;48.120;11.576;2022-10-16T10:06:15;22.90;7.90
490;DHT22;231;48.120;11.576;2022-10-16T10:08:56;22.90;7.10
490;DHT22;231;48.120;11.576;2022-10-16T10:11:38;22.80;6.10
490;DHT22;231;48.120;11.576;2022-10-16T10:14:06;22.80;6.10
490;DHT22;231;48.120;11.576;2022-10-16T10:16:35;22.80;6.10
490;DHT22;231;48.120;11.576;2022-10-16T10:19:03;22.90;5.90
490;DHT22;231;48.120;11.576;2022-10-16T10:21:33;22.80;5.10
490;DHT22;231;48.120;11.576;2022-10-16T10:24:00;22.80;5.40
490;DHT22;231;48.120;11.576;2022-10-16T10:26:31;22.80;5.90
490;DHT22;231;48.120;11.576;2022-10-16T10:29:02;22.90;5.50
490;DHT22;231;48.120;11.576;2022-10-16T10:31:37;22.80;4.60
490;DHT22;231;48.120;11.576;2022-10-16T10:34:21;22.80;5.40
490;DHT22;231;48.120;11.576;2022-10-16T10:36:56;22.70;4.90
490;DHT22;231;48.120;11.576;2022-10-16T10:39:30;22.70;4.50
490;DHT22;231;48.120;11.576;2022-10-16T10:42:20;22.80;4.80
490;DHT22;231;48.120;11.576;2022-10-16T10:45:21;22.90;4.90
490;DHT22;231;48.120;11.576;2022-10-16T10:48:26;22.90;5.10
490;DHT22;231;48.120;11.576;2022-10-16T10:51:02;22.80;4.60
490;DHT22;231;48.120;11.576;2022-10-16T10:53:41;22.90;5.00
490;DHT22;231;48.120;11.576;2022-10-16T10:56:40;23.00;5.40
490;DHT22;231;48.120;11.576;2022-10-16T10:59:43;23.10;5.10
490;DHT22;231;48.120;11.576;2022-10-16T11:02:18;23.10;5.00
490;DHT22;231;48.120;11.576;2022-10-16T11:05:19;23.20;5.20
490;DHT22;231;48.120;11.576;2022-10-16T11:07:54;23.20;5.40
490;DHT22;231;48.120;11.576;2022-10-16T11:10:26;23.30;5.70
490;DHT22;231;48.120;11.576;2022-10-16T11:12:58;23.40;5.70
490;DHT22;231;48.120;11.576;2022-10-16T11:15:28;23.40;5.50
490;DHT22;231;48.120;11.576;2022-10-16T11:18:02;23.40;4.70
490;DHT22;231;48.120;11.576;2022-10-16T11:20:34;23.40;4.20
490;DHT22;231;48.120;11.576;2022-10-16T11:23:06;23.50;4.60
490;DHT22;231;48.120;11.576;2022-10-16T11:25:36;23.50;4.20
490;DHT22;231;48.120;11.576;2022-10-16T11:28:10;23.50;4.20
490;DHT22;231;48.120;11.576;2022-10-16T11:30:43;23.60;3.90
490;DHT22;231;48.120;11.576;2022-10-16T11:33:24;23.60;4.10
490;DHT22;231;48.120;11.576;2022-10-16T11:35:55;23.60;4.30
490;DHT22;231;48.120;11.576;2022-10-16T11:38:30;23.70;4.10
490;DHT22;231;48.120;11.576;2022-10-16T11:41:03;23.70;3.30
490;DHT22;231;48.120;11.576;2022-10-16T11:46:04;23.90;1.80
490;DHT22;231;48.120;11.576;2022-10-16T11:48:38;24.00;1.20
490;DHT22;231;48.120;11.576;2022-10-16T11:51:14;24.10;1.00
490;DHT22;231;48.120;11.576;2022-10-16T11:53:48;24.20;1.00
490;DHT22;231;48.120;11.576;2022-10-16T11:56:19;24.30;1.00
490;DHT22;231;48.120;11.576;2022-10-16T11:58:54;24.40;1.00
490;DHT22;231;48.120;11.576;2022-10-16T12:01:27;24.40;1.00
490;DHT22;231;48.120;11.576;2022-10-16T12:04:06;24.50;1.00
490;DHT22;231;48.120;11.576;2022-10-16T12:06:40;24.60;1.00
490;DHT22;231;48.120;11.576;2022-10-16T12:09:18;24.60;1.00
490;DHT22;231;48.120;11.576;2022-10-16T12:11:47;24.70;1.00
490;DHT22;231;48.120;11.576;2022-10-16T12:14:36;24.80;1.00
490;DHT22;231;48.120;11.576;2022-10-16T12:19:57;24.90;1.00
490;DHT22;231;48.120;11.576;2022-10-16T12:22:29;24.90;1.00
490;DHT22;231;48.120;11.576;2022-10-16T12:24:58;25.00;1.00
490;DHT22;231;48.120;11.576;2022-10-16T12:27:29;25.00;1.00
490;DHT22;231;48.120;11.576;2022-10-16T12:29:57;25.00;1.00
490;DHT22;231;48.120;11.576;2022-10-16T12:32:30;25.00;1.00
490;DHT22;231;48.120;11.576;2022-10-16T12:34:59;25.00;1.00
490;DHT22;231;48.120;11.576;2022-10-16T12:37:28;25.00;1.00
490;DHT22;231;48.120;11.576;2022-10-16T12:39:58;25.10;1.00
490;DHT22;231;48.120;11.576;2022-10-16T12:42:33;25.20;1.00
490;DHT22;231;48.120;11.576;2022-10-16T12:45:26;25.20;1.00
490;DHT22;231;48.120;11.576;2022-10-16T12:47:54;25.20;1.00
490;DHT22;231;48.120;11.576;2022-10-16T12:50:33;25.30;1.00
490;DHT22;231;48.120;11.576;2022-10-16T12:53:02;25.30;1.00
490;DHT22;231;48.120;11.576;2022-10-16T12:55:44;25.30;1.00
490;DHT22;231;48.120;11.576;2022-10-16T12:58:28;25.40;1.00
490;DHT22;231;48.120;11.576;2022-10-16T13:01:04;25.40;1.00
490;DHT22;231;48.120;11.576;2022-10-16T13:03:54;25.40;1.00
490;DHT22;231;48.120;11.576;2022-10-16T13:06:30;25.40;1.00
490;DHT22;231;48.120;11.576;2022-10-16T13:09:21;25.40;1.00
490;DHT22;231;48.120;11.576;2022-10-16T13:12:01;25.50;1.00
490;DHT22;231;48.120;11.576;2022-10-16T13:17:40;25.50;1.00
490;DHT22;231;48.120;11.576;2022-10-16T13:20:17;25.50;1.00
490;DHT22;231;48.120;11.576;2022-10-16T13:23:02;25.50;1.00
490;DHT22;231;48.120;11.576;2022-10-16T13:25:39;25.30;1.00
490;DHT22;231;48.120;11.576;2022-10-16T13:28:12;25.30;1.00
490;DHT22;231;48.120;11.576;2022-10-16T13:30:41;25.10;1.00
490;DHT22;231;48.120;11.576;2022-10-16T13:33:15;24.90;1.00
490;DHT22;231;48.120;11.576;2022-10-16T13:35:48;24.90;1.00
490;DHT22;231;48.120;11.576;2022-10-16T13:38:18;25.00;1.00
490;DHT22;231;48.120;11.576;2022-10-16T13:40:53;25.00;1.00
490;DHT22;231;48.120;11.576;2022-10-16T13:43:25;25.10;1.00
490;DHT22;231;48.120;11.576;2022-10-16T13:45:54;25.10;1.00
490;DHT22;231;48.120;11.576;2022-10-16T13:48:21;25.10;1.00
490;DHT22;231;48.120;11.576;2022-10-16T13:50:58;25.00;1.00
490;DHT22;231;48.120;11.576;2022-10-16T13:53:25;25.00;1.00
490;DHT22;231;48.120;11.576;2022-10-16T13:55:52;25.00;1.00
490;DHT22;231;48.120;11.576;2022-10-16T13:58:19;25.00;1.00
490;DHT22;231;48.120;11.576;2022-10-16T14:00:56;24.90;1.00
490;DHT22;231;48.120;11.576;2022-10-16T14:03:24;24.90;1.00
490;DHT22;231;48.120;11.576;2022-10-16T14:05:52;24.90;1.00
490;DHT22;231;48.120;11.576;2022-10-16T14:08:20;24.90;1.00
490;DHT22;231;48.120;11.576;2022-10-16T14:10:50;24.90;1.00
490;DHT22;231;48.120;11.576;2022-10-16T14:13:20;24.90;1.00
490;DHT22;231;48.120;11.576;2022-10-16T14:15:51;24.80;1.00
490;DHT22;231;48.120;11.576;2022-10-16T14:18:22;24.70;1.00
490;DHT22;231;48.120;11.576;2022-10-16T14:20:50;24.60;1.00
490;DHT22;231;48.120;11.576;2022-10-16T14:23:23;24.50;1.00
490;DHT22;231;48.120;11.576;2022-10-16T14:26:05;24.50;1.00
490;DHT22;231;48.120;11.576;2022-10-16T14:28:32;24.50;1.00
490;DHT22;231;48.120;11.576;2022-10-16T14:31:00;24.40;1.00
490;DHT22;231;48.120;11.576;2022-10-16T14:33:34;24.50;1.00
490;DHT22;231;48.120;11.576;2022-10-16T14:36:05;24.40;1.00
490;DHT22;231;48.120;11.576;2022-10-16T14:38:38;24.30;1.00
490;DHT22;231;48.120;11.576;2022-10-16T14:41:06;24.20;1.00
490;DHT22;231;48.120;11.576;2022-10-16T14:43:35;24.20;1.00
490;DHT22;231;48.120;11.576;2022-10-16T14:46:06;24.10;1.00
490;DHT22;231;48.120;11.576;2022-10-16T14:48:34;24.00;1.00
490;DHT22;231;48.120;11.576;2022-10-16T14:51:02;24.00;1.00
490;DHT22;231;48.120;11.576;2022-10-16T14:53:29;24.00;1.00
490;DHT22;231;48.120;11.576;2022-10-16T14:55:55;23.90;1.00
490;DHT22;231;48.120;11.576;2022-10-16T14:58:23;23.90;1.00
490;DHT22;231;48.120;11.576;2022-10-16T15:00:55;23.90;1.00
490;DHT22;231;48.120;11.576;2022-10-16T15:03:23;23.80;1.00
490;DHT22;231;48.120;11.576;2022-10-16T15:05:51;23.70;1.00
490;DHT22;231;48.120;11.576;2022-10-16T15:08:18;23.70;1.00
490;DHT22;231;48.120;11.576;2022-10-16T15:10:45;23.60;1.40
490;DHT22;231;48.120;11.576;2022-10-16T15:13:13;23.50;2.00
490;DHT22;231;48.120;11.576;2022-10-16T15:15:42;23.40;2.70
490;DHT22;231;48.120;11.576;2022-10-16T15:18:10;23.30;3.10
490;DHT22;231;48.120;11.576;2022-10-16T15:20:38;23.30;3.60
490;DHT22;231;48.120;11.576;2022-10-16T15:23:13;23.20;4.30
490;DHT22;231;48.120;11.576;2022-10-16T15:25:42;23.10;4.50
490;DHT22;231;48.120;11.576;2022-10-16T15:28:11;23.00;5.20
490;DHT22;231;48.120;11.576;2022-10-16T15:30:39;22.90;5.50
490;DHT22;231;48.120;11.576;2022-10-16T15:33:12;22.80;5.90
490;DHT22;231;48.120;11.576;2022-10-16T15:35:39;22.70;6.20
490;DHT22;231;48.120;11.576;2022-10-16T15:38:10;22.70;6.70
490;DHT22;231;48.120;11.576;2022-10-16T15:40:37;22.60;7.00
490;DHT22;231;48.120;11.576;2022-10-16T15:43:04;22.50;7.40
490;DHT22;231;48.120;11.576;2022-10-16T15:45:31;22.40;7.50
490;DHT22;231;48.120;11.576;2022-10-16T15:47:58;22.40;7.40
490;DHT22;231;48.120;11.576;2022-10-16T15:50:25;22.30;7.50
490;DHT22;231;48.120;11.576;2022-10-16T15:52:52;22.30;7.60
490;DHT22;231;48.120;11.576;2022-10-16T15:55:21;22.20;7.80
490;DHT22;231;48.120;11.576;2022-10-16T15:57:47;22.20;8.00
490;DHT22;231;48.120;11.576;2022-10-16T16:00:16;22.20;8.10
490;DHT22;231;48.120;11.576;2022-10-16T16:02:50;22.10;8.20
490;DHT22;231;48.120;11.576;2022-10-16T16:05:17;22.10;8.60
490;DHT22;231;48.120;11.576;2022-10-16T16:07:44;22.00;8.80
490;DHT22;231;48.120;11.576;2022-10-16T16:10:11;22.00;9.00
490;DHT22;231;48.120;11.576;2022-10-16T16:12:40;21.90;9.90
490;DHT22;231;48.120;11.576;2022-10-16T16:15:08;21.90;9.70
490;DHT22;231;48.120;11.576;2022-10-16T16:17:35;21.80;10.00
490;DHT22;231;48.120;11.576;2022-10-16T16:20:03;21.80;10.30
490;DHT22;231;48.120;11.576;2022-10-16T16:22:31;21.70;10.40
490;DHT22;231;48.120;11.576;2022-10-16T16:24:57;21.60;10.90
490;DHT22;231;48.120;11.576;2022-10-16T16:27:24;21.60;11.30
490;DHT22;231;48.120;11.576;2022-10-16T16:29:55;21.50;11.50
490;DHT22;231;48.120;11.576;2022-10-16T16:32:22;21.50;11.80
490;DHT22;231;48.120;11.576;2022-10-16T16:34:49;21.40;12.10
490;DHT22;231;48.120;11.576;2022-10-16T16:37:16;21.40;12.60
490;DHT22;231;48.120;11.576;2022-10-16T16:39:43;21.30;12.70
490;DHT22;231;48.120;11.576;2022-10-16T16:42:10;21.30;13.00
490;DHT22;231;48.120;11.576;2022-10-16T16:44:37;21.20;13.20
490;DHT22;231;48.120;11.576;2022-10-16T16:47:06;21.20;13.50
490;DHT22;231;48.120;11.576;2022-10-16T16:49:33;21.10;14.00
490;DHT22;231;48.120;11.576;2022-10-16T16:52:00;21.10;14.00
490;DHT22;231;48.120;11.576;2022-10-16T16:54:27;21.00;14.50